Time;durP1;ratioP1;P1;durP2;ratioP2;P2;SDS_P1;SDS_P2;PMS_P1;PMS_P2;Temp;Humidity;BMP_temperature;BMP_pressure;BME280_temperature;BME280_humidity;BME280_pressure;Samples;Min_cycle;Max_cycle;Signal;HPM_P1;HPM_P2
2022/07/04 00:00:04;;;;;;;;;;;;;;;;;;5039232;28;19924;-72
2022/07/04 00:02:30;;;;;;;;;;;;;;;;;;5040560;28;19928;-72
2022/07/04 00:04:56;;;;;;;;;;;;;;;;;;5037087;28;19925;-72
2022/07/04 00:07:22;;;;;;;;;;;;;;;;;;5039505;28;19925;-72
2022/07/04 00:09:48;;;;;;;;;;;;;;;;;;5040715;28;19928;-72
2022/07/04 00:12:14;;;;;;;;;;;;;;;;;;5040197;28;19921;-72
2022/07/04 00:14:40;;;;;;;;;;;;;;;;;;5040542;28;19936;-71
2022/07/04 00:17:06;;;;;;;;;;;;;;;;;;5048167;22;19920;-77
2022/07/04 00:19:33;;;;;;;;;;;;;;;;;;5039618;28;19921;-78
2022/07/04 00:21:59;;;;;;;;;;;;;;;;;;5038300;28;20361;-77
2022/07/04 00:24:25;;;;;;;;;;;;;;;;;;5034983;28;20396;-76
2022/07/04 00:26:51;;;;;;;;;;;;;;;;;;5036689;28;20399;-77
2022/07/04 00:29:17;;;;;;;;;;;;;;;;;;5039323;28;20396;-78
2022/07/04 00:31:43;;;;;;;;;;;;;;;;;;5035780;28;20401;-78
2022/07/04 00:34:09;;;;;;;;;;;;;;;;;;5038708;28;19920;-77
2022/07/04 00:36:35;;;;;;;;;;;;;;;;;;5034490;28;19925;-78
2022/07/04 00:39:02;;;;;;;;;;;;;;;;;;5035679;28;19921;-78
2022/07/04 00:41:28;;;;;;;;;;;;;;;;;;5038359;28;19928;-78
2022/07/04 00:43:54;;;;;;;;;;;;;;;;;;5038896;28;19925;-76
2022/07/04 00:46:20;;;;;;;;;;;;;;;;;;5038169;28;19927;-78
2022/07/04 00:48:46;;;;;;;;;;;;;;;;;;5038930;28;19925;-76
2022/07/04 00:51:12;;;;;;;;;;;;;;;;;;5034164;28;19931;-77
2022/07/04 00:53:38;;;;;;;;;;;;;;;;;;5036588;28;19920;-76
2022/07/04 00:56:05;;;;;;;;;;;;;;;;;;5037005;28;19929;-76
2022/07/04 00:58:31;;;;;;;;;;;;;;;;;;5035451;28;19931;-77
2022/07/04 01:00:57;;;;;;;;;;;;;;;;;;5037231;28;19925;-76
2022/07/04 01:03:23;;;;;;;;;;;;;;;;;;5039701;28;19921;-76
2022/07/04 01:05:49;;;;;;;;;;;;;;;;;;5037430;28;19928;-77
2022/07/04 01:08:15;;;;;;;;;;;;;;;;;;5034478;28;19922;-77
2022/07/04 01:10:42;;;;;;;;;;;;;;;;;;5039099;28;19971;-77
2022/07/04 01:13:08;;;;;;;;;;;;;;;;;;5036459;28;19928;-77
2022/07/04 01:15:34;;;;;;;;;;;;;;;;;;5036724;28;19932;-77
2022/07/04 01:18:00;;;;;;;;;;;;;;;;;;5038068;28;19920;-77
2022/07/04 01:20:26;;;;;;;;;;;;;;;;;;5039891;28;19932;-77
2022/07/04 01:22:52;;;;;;;;;;;;;;;;;;5034669;28;19936;-77
2022/07/04 01:25:18;;;;;;;;;;;;;;;;;;5037201;28;19921;-77
2022/07/04 01:27:45;;;;;;;;;;;;;;;;;;5038335;28;19947;-77
2022/07/04 01:30:11;;;;;;;;;;;;;;;;;;5039193;28;19924;-77
2022/07/04 01:32:37;;;;;;;;;;;;;;;;;;5036595;28;19925;-77
2022/07/04 01:35:03;;;;;;;;;;;;;;;;;;5038429;28;19975;-77
2022/07/04 01:37:30;;;;;;;;;;;;;;;;;;5036670;28;19920;-77
2022/07/04 01:39:56;;;;;;;;;;;;;;;;;;5037826;28;19924;-77
2022/07/04 01:42:22;;;;;;;;;;;;;;;;;;5037893;28;19921;-77
2022/07/04 01:44:48;;;;;;;;;;;;;;;;;;5036212;28;19920;-76
2022/07/04 01:47:14;;;;;;;;;;;;;;;;;;5038104;28;19925;-77
2022/07/04 01:49:40;;;;;;;;;;;;;;;;;;5039238;28;20285;-77
2022/07/04 01:52:07;;;;;;;;;;;;;;;;;;5035203;28;19924;-77
2022/07/04 01:54:33;;;;;;;;;;;;;;;;;;5038005;28;19932;-77
2022/07/04 01:56:59;;;;;;;;;;;;;;;;;;5033400;28;19921;-77
2022/07/04 02:01:29;;;;;;;;;;;;;;;;;;5038049;28;20276;-77
2022/07/04 02:02:11;;;;;;;;;;;;;;;;;;5035682;28;20428;-76
2022/07/04 02:04:38;;;;;;;;;;;;;;;;;;5038085;28;20022;-77
2022/07/04 02:07:04;;;;;;;;;;;;;;;;;;5033982;28;19921;-77
2022/07/04 02:09:30;;;;;;;;;;;;;;;;;;5037372;28;20329;-76
2022/07/04 02:14:42;;;;;;;;;;;;;;;;;;5035908;28;19920;-77
2022/07/04 02:17:08;;;;;;;;;;;;;;;;;;5033930;28;19987;-77
2022/07/04 02:19:34;;;;;;;;;;;;;;;;;;5038768;28;19925;-76
2022/07/04 02:22:00;;;;;;;;;;;;;;;;;;5034557;28;19921;-77
2022/07/04 02:24:26;;;;;;;;;;;;;;;;;;5037849;28;19928;-76
2022/07/04 02:26:52;;;;;;;;;;;;;;;;;;5036971;28;19925;-76
2022/07/04 02:29:18;;;;;;;;;;;;;;;;;;5037727;28;19925;-76
2022/07/04 02:31:45;;;;;;;;;;;;;;;;;;5035329;28;19925;-77
2022/07/04 02:34:11;;;;;;;;;;;;;;;;;;5038245;28;19924;-77
2022/07/04 02:36:37;;;;;;;;;;;;;;;;;;5034983;28;20434;-77
2022/07/04 02:39:04;;;;;;;;;;;;;;;;;;5036736;28;20293;-77
2022/07/04 02:41:30;;;;;;;;;;;;;;;;;;5037605;28;19920;-77
2022/07/04 02:43:56;;;;;;;;;;;;;;;;;;5038108;28;19931;-77
2022/07/04 02:46:23;;;;;;;;;;;;;;;;;;5037391;28;20483;-77
2022/07/04 02:48:49;;;;;;;;;;;;;;;;;;5032687;28;20309;-77
2022/07/04 02:51:15;;;;;;;;;;;;;;;;;;5032159;28;19921;-77
2022/07/04 02:53:41;;;;;;;;;;;;;;;;;;5037274;28;19931;-77
2022/07/04 02:56:07;;;;;;;;;;;;;;;;;;5038600;28;20200;-77
2022/07/04 02:58:33;;;;;;;;;;;;;;;;;;5038370;28;19921;-76
2022/07/04 03:00:59;;;;;;;;;;;;;;;;;;5040451;28;19932;-76
2022/07/04 03:03:25;;;;;;;;;;;;;;;;;;5041176;28;19921;-76
2022/07/04 03:05:52;;;;;;;;;;;;;;;;;;5036903;28;20362;-77
2022/07/04 03:08:18;;;;;;;;;;;;;;;;;;5040109;28;20012;-76
2022/07/04 03:10:44;;;;;;;;;;;;;;;;;;5041576;28;19928;-77
2022/07/04 03:13:10;;;;;;;;;;;;;;;;;;5038315;28;19927;-77
2022/07/04 03:15:36;;;;;;;;;;;;;;;;;;5040843;28;19924;-76
2022/07/04 03:18:02;;;;;;;;;;;;;;;;;;5039283;28;19921;-76
2022/07/04 03:20:29;;;;;;;;;;;;;;;;;;5041010;28;19928;-76
2022/07/04 03:22:55;;;;;;;;;;;;;;;;;;5035766;28;19925;-76
2022/07/04 03:25:21;;;;;;;;;;;;;;;;;;5039982;28;19921;-77
2022/07/04 03:27:47;;;;;;;;;;;;;;;;;;5038692;28;19944;-76
2022/07/04 03:30:13;;;;;;;;;;;;;;;;;;5040011;28;19930;-76
2022/07/04 03:32:39;;;;;;;;;;;;;;;;;;5039926;28;19921;-77
2022/07/04 03:35:06;;;;;;;;;;;;;;;;;;5040560;28;19928;-77
2022/07/04 03:37:32;;;;;;;;;;;;;;;;;;5035977;28;19925;-76
2022/07/04 03:39:58;;;;;;;;;;;;;;;;;;5038448;28;20505;-77
2022/07/04 03:42:24;;;;;;;;;;;;;;;;;;5039892;28;20288;-77
2022/07/04 03:44:50;;;;;;;;;;;;;;;;;;5040530;28;19925;-77
2022/07/04 03:47:16;;;;;;;;;;;;;;;;;;5039897;28;20012;-77
2022/07/04 03:49:42;;;;;;;;;;;;;;;;;;5041136;28;19921;-76
2022/07/04 03:52:09;;;;;;;;;;;;;;;;;;5035590;28;19925;-77
2022/07/04 03:54:35;;;;;;;;;;;;;;;;;;5037082;28;20296;-77
2022/07/04 03:57:01;;;;;;;;;;;;;;;;;;5038871;28;19924;-77
2022/07/04 03:59:27;;;;;;;;;;;;;;;;;;5041392;28;20306;-77
2022/07/04 04:01:53;;;;;;;;;;;;;;;;;;5034715;28;19925;-76
2022/07/04 04:07:03;;;;;;;;;;;;;;;;;;5032886;28;19928;-76
2022/07/04 04:09:30;;;;;;;;;;;;;;;;;;5034298;28;20368;-76
2022/07/04 04:11:56;;;;;;;;;;;;;;;;;;5035463;28;19921;-76
2022/07/04 04:14:24;;;;;;;;;;;;;;;;;;5040135;28;19927;-76
2022/07/04 04:16:50;;;;;;;;;;;;;;;;;;5036155;28;19968;-76
2022/07/04 04:19:16;;;;;;;;;;;;;;;;;;5039868;28;19920;-76
2022/07/04 04:21:42;;;;;;;;;;;;;;;;;;5031998;28;19925;-76
2022/07/04 04:24:08;;;;;;;;;;;;;;;;;;5034218;28;19925;-76
2022/07/04 04:26:34;;;;;;;;;;;;;;;;;;5035532;28;19987;-76
2022/07/04 04:29:01;;;;;;;;;;;;;;;;;;5037144;28;19925;-76
2022/07/04 04:31:27;;;;;;;;;;;;;;;;;;5027686;28;19921;-76
2022/07/04 04:33:53;;;;;;;;;;;;;;;;;;5058328;28;20280;-76
2022/07/04 04:36:19;;;;;;;;;;;;;;;;;;5056226;28;19932;-76
2022/07/04 04:38:45;;;;;;;;;;;;;;;;;;5058153;28;19931;-76
2022/07/04 04:41:11;;;;;;;;;;;;;;;;;;5056454;28;19924;-77
2022/07/04 04:43:37;;;;;;;;;;;;;;;;;;5058308;28;19925;-77
2022/07/04 04:46:04;;;;;;;;;;;;;;;;;;5058793;28;19928;-77
2022/07/04 04:48:30;;;;;;;;;;;;;;;;;;5050295;28;19927;-78
2022/07/04 04:50:56;;;;;;;;;;;;;;;;;;5050428;28;19926;-78
2022/07/04 04:53:25;;;;;;;;;;;;;;;;;;5059117;28;19928;-77
2022/07/04 04:55:51;;;;;;;;;;;;;;;;;;5059168;28;19920;-75
2022/07/04 04:58:17;;;;;;;;;;;;;;;;;;5059466;28;19924;-76
2022/07/04 05:00:43;;;;;;;;;;;;;;;;;;5058948;28;20296;-77
2022/07/04 05:03:09;;;;;;;;;;;;;;;;;;5053836;28;20288;-77
2022/07/04 05:05:35;;;;;;;;;;;;;;;;;;5057267;28;19924;-77
2022/07/04 05:08:01;;;;;;;;;;;;;;;;;;5057949;28;19921;-76
2022/07/04 05:10:28;;;;;;;;;;;;;;;;;;5058673;28;19924;-76
2022/07/04 05:12:55;;;;;;;;;;;;;;;;;;5058469;28;19931;-76
2022/07/04 05:15:21;;;;;;;;;;;;;;;;;;5058452;28;19930;-76
2022/07/04 05:17:47;;;;;;;;;;;;;;;;;;5053787;28;19921;-76
2022/07/04 05:20:13;;;;;;;;;;;;;;;;;;5058379;28;19928;-75
2022/07/04 05:22:39;;;;;;;;;;;;;;;;;;5058649;28;20399;-77
2022/07/04 05:25:05;;;;;;;;;;;;;;;;;;5051393;28;20453;-76
2022/07/04 05:27:31;;;;;;;;;;;;;;;;;;5055652;28;19927;-76
2022/07/04 05:29:58;;;;;;;;;;;;;;;;;;5059369;28;19920;-76
2022/07/04 05:32:24;;;;;;;;;;;;;;;;;;5047241;28;20589;-76
2022/07/04 05:34:50;;;;;;;;;;;;;;;;;;5053730;28;19920;-76
2022/07/04 05:37:16;;;;;;;;;;;;;;;;;;5055630;28;19920;-78
2022/07/04 05:39:42;;;;;;;;;;;;;;;;;;5058559;28;19931;-78
2022/07/04 05:42:09;;;;;;;;;;;;;;;;;;5057110;28;19928;-76
2022/07/04 05:44:35;;;;;;;;;;;;;;;;;;5059815;28;19921;-77
2022/07/04 05:47:01;;;;;;;;;;;;;;;;;;5058095;28;20328;-77
2022/07/04 05:49:27;;;;;;;;;;;;;;;;;;5055231;28;19920;-78
2022/07/04 05:51:53;;;;;;;;;;;;;;;;;;5055317;28;19921;-78
2022/07/04 05:54:19;;;;;;;;;;;;;;;;;;5059081;28;19935;-76
2022/07/04 05:56:45;;;;;;;;;;;;;;;;;;5057522;28;19921;-76
2022/07/04 05:59:12;;;;;;;;;;;;;;;;;;5051575;28;19920;-76
2022/07/04 06:01:38;;;;;;;;;;;;;;;;;;5054155;28;20372;-77
2022/07/04 06:04:04;;;;;;;;;;;;;;;;;;5055480;28;20280;-77
2022/07/04 06:06:30;;;;;;;;;;;;;;;;;;5058345;28;19943;-76
2022/07/04 06:08:56;;;;;;;;;;;;;;;;;;5056900;28;20318;-78
2022/07/04 06:11:22;;;;;;;;;;;;;;;;;;5058274;28;20516;-77
2022/07/04 06:13:49;;;;;;;;;;;;;;;;;;5058224;28;19928;-78
2022/07/04 06:16:15;;;;;;;;;;;;;;;;;;5063620;22;19928;-74
2022/07/04 06:18:41;;;;;;;;;;;;;;;;;;5036931;28;19940;-73
2022/07/04 06:21:08;;;;;;;;;;;;;;;;;;5038813;28;19932;-74
2022/07/04 06:23:34;;;;;;;;;;;;;;;;;;5037692;28;19927;-74
2022/07/04 06:26:00;;;;;;;;;;;;;;;;;;5038660;28;19925;-73
2022/07/04 06:28:26;;;;;;;;;;;;;;;;;;5035839;28;19921;-74
2022/07/04 06:30:52;;;;;;;;;;;;;;;;;;5040120;28;19928;-74
2022/07/04 06:33:18;;;;;;;;;;;;;;;;;;5041140;28;19924;-74
2022/07/04 06:35:49;;;;;;;;;;;;;;;;;;5040269;28;19925;-73
2022/07/04 06:38:16;;;;;;;;;;;;;;;;;;5040677;28;19924;-73
2022/07/04 06:40:42;;;;;;;;;;;;;;;;;;5040335;28;19931;-74
2022/07/04 06:43:08;;;;;;;;;;;;;;;;;;5040271;28;19927;-74
2022/07/04 06:45:34;;;;;;;;;;;;;;;;;;5041369;28;19921;-74
2022/07/04 06:48:00;;;;;;;;;;;;;;;;;;5040708;28;19925;-74
2022/07/04 06:50:26;;;;;;;;;;;;;;;;;;5039848;28;20476;-74
2022/07/04 06:52:52;;;;;;;;;;;;;;;;;;5042089;28;20384;-74
2022/07/04 06:55:19;;;;;;;;;;;;;;;;;;5042228;28;19925;-74
2022/07/04 06:57:45;;;;;;;;;;;;;;;;;;5038842;28;19925;-74
2022/07/04 07:00:11;;;;;;;;;;;;;;;;;;5041626;28;19921;-74
2022/07/04 07:02:37;;;;;;;;;;;;;;;;;;5040658;28;20144;-74
2022/07/04 07:05:03;;;;;;;;;;;;;;;;;;5041967;28;19921;-74
2022/07/04 07:07:29;;;;;;;;;;;;;;;;;;5041271;28;19921;-74
2022/07/04 07:09:55;;;;;;;;;;;;;;;;;;5042320;28;19932;-74
2022/07/04 07:12:22;;;;;;;;;;;;;;;;;;5039951;28;19920;-74
2022/07/04 07:14:48;;;;;;;;;;;;;;;;;;5039723;28;20020;-75
2022/07/04 07:17:15;;;;;;;;;;;;;;;;;;5039649;28;19932;-74
2022/07/04 07:19:41;;;;;;;;;;;;;;;;;;5042133;28;19967;-74
2022/07/04 07:22:07;;;;;;;;;;;;;;;;;;5040547;28;19924;-74
2022/07/04 07:24:33;;;;;;;;;;;;;;;;;;5041002;28;20495;-74
2022/07/04 07:27:00;;;;;;;;;;;;;;;;;;5040465;28;19924;-74
2022/07/04 07:29:26;;;;;;;;;;;;;;;;;;5038989;28;19921;-74
2022/07/04 07:31:52;;;;;;;;;;;;;;;;;;5038064;28;19932;-74
2022/07/04 07:34:18;;;;;;;;;;;;;;;;;;5039641;28;19936;-74
2022/07/04 07:36:44;;;;;;;;;;;;;;;;;;5031113;28;19924;-74
2022/07/04 07:39:10;;;;;;;;;;;;;;;;;;5036204;28;19928;-74
2022/07/04 07:41:36;;;;;;;;;;;;;;;;;;5040492;28;19925;-74
2022/07/04 07:44:02;;;;;;;;;;;;;;;;;;5040216;28;19932;-74
2022/07/04 07:46:29;;;;;;;;;;;;;;;;;;5039123;28;19921;-74
2022/07/04 07:48:55;;;;;;;;;;;;;;;;;;5039795;28;19928;-74
2022/07/04 07:51:21;;;;;;;;;;;;;;;;;;5039668;28;19929;-74
2022/07/04 07:53:47;;;;;;;;;;;;;;;;;;5035753;28;19928;-74
2022/07/04 07:56:13;;;;;;;;;;;;;;;;;;5039337;28;20388;-74
2022/07/04 07:58:39;;;;;;;;;;;;;;;;;;5040751;28;19967;-74
2022/07/04 08:01:05;;;;;;;;;;;;;;;;;;5037461;28;20004;-74
2022/07/04 08:06:15;;;;;;;;;;;;;;;;;;5039182;28;20268;-74
2022/07/04 08:08:41;;;;;;;;;;;;;;;;;;5040792;28;19920;-74
2022/07/04 08:11:08;;;;;;;;;;;;;;;;;;5039272;28;19924;-74
2022/07/04 08:13:34;;;;;;;;;;;;;;;;;;5037998;28;19921;-74
2022/07/04 08:16:00;;;;;;;;;;;;;;;;;;5036761;28;19928;-74
2022/07/04 08:18:26;;;;;;;;;;;;;;;;;;5039697;28;19924;-75
2022/07/04 08:20:52;;;;;;;;;;;;;;;;;;5038993;28;19924;-75
2022/07/04 08:23:18;;;;;;;;;;;;;;;;;;5037988;28;20135;-75
2022/07/04 08:25:44;;;;;;;;;;;;;;;;;;5038446;28;19928;-74
2022/07/04 08:28:11;;;;;;;;;;;;;;;;;;5036272;28;19924;-74
2022/07/04 08:30:37;;;;;;;;;;;;;;;;;;5037865;28;19921;-74
2022/07/04 08:33:03;;;;;;;;;;;;;;;;;;5037394;28;19928;-75
2022/07/04 08:35:29;;;;;;;;;;;;;;;;;;5039008;28;19929;-75
2022/07/04 08:37:55;;;;;;;;;;;;;;;;;;5036978;28;19928;-74
2022/07/04 08:40:22;;;;;;;;;;;;;;;;;;5040606;28;19921;-74
2022/07/04 08:42:48;;;;;;;;;;;;;;;;;;5040264;28;19921;-74
2022/07/04 08:45:15;;;;;;;;;;;;;;;;;;5039249;28;19932;-74
2022/07/04 08:47:41;;;;;;;;;;;;;;;;;;5039562;28;19924;-75
2022/07/04 08:50:10;;;;;;;;;;;;;;;;;;5038540;28;19928;-75
2022/07/04 08:52:36;;;;;;;;;;;;;;;;;;5039701;28;19925;-74
2022/07/04 09:00:30;;;;;;;;;;;;;;;;;;5035373;28;19915;-75
2022/07/04 09:02:56;;;;;;;;;;;;;;;;;;5037565;28;19920;-75
2022/07/04 09:05:22;;;;;;;;;;;;;;;;;;5037681;28;19932;-74
2022/07/04 09:07:48;;;;;;;;;;;;;;;;;;5036692;28;19928;-75
2022/07/04 09:10:14;;;;;;;;;;;;;;;;;;5036829;28;19990;-75
2022/07/04 09:12:40;;;;;;;;;;;;;;;;;;5038291;28;19925;-74
2022/07/04 09:15:07;;;;;;;;;;;;;;;;;;5037092;28;19924;-74
2022/07/04 09:17:33;;;;;;;;;;;;;;;;;;5037358;28;19928;-75
2022/07/04 09:19:59;;;;;;;;;;;;;;;;;;5037541;28;20064;-75
2022/07/04 09:22:25;;;;;;;;;;;;;;;;;;5036407;28;19924;-75
2022/07/04 09:24:52;;;;;;;;;;;;;;;;;;5037178;28;19925;-75
2022/07/04 09:27:18;;;;;;;;;;;;;;;;;;5038894;28;19921;-75
2022/07/04 09:29:44;;;;;;;;;;;;;;;;;;5037993;28;19931;-75
2022/07/04 09:32:10;;;;;;;;;;;;;;;;;;5037792;28;20399;-75
2022/07/04 09:34:37;;;;;;;;;;;;;;;;;;5035094;28;19947;-75
2022/07/04 09:37:03;;;;;;;;;;;;;;;;;;5037440;28;19921;-74
2022/07/04 09:39:30;;;;;;;;;;;;;;;;;;5038284;28;19931;-75
2022/07/04 09:41:56;;;;;;;;;;;;;;;;;;5036761;28;19966;-75
2022/07/04 09:44:22;;;;;;;;;;;;;;;;;;5035551;28;19952;-75
2022/07/04 09:46:48;;;;;;;;;;;;;;;;;;5038686;28;20012;-75
2022/07/04 09:49:15;;;;;;;;;;;;;;;;;;5037216;28;19932;-75
2022/07/04 09:51:41;;;;;;;;;;;;;;;;;;5035810;28;19927;-75
2022/07/04 09:54:07;;;;;;;;;;;;;;;;;;5036545;28;20292;-74
2022/07/04 09:56:33;;;;;;;;;;;;;;;;;;5036271;28;19924;-74
2022/07/04 09:58:59;;;;;;;;;;;;;;;;;;5037537;28;19921;-74
2022/07/04 10:01:25;;;;;;;;;;;;;;;;;;5037448;28;19925;-75
2022/07/04 10:03:51;;;;;;;;;;;;;;;;;;5035518;28;19925;-75
2022/07/04 10:06:18;;;;;;;;;;;;;;;;;;5035406;28;19921;-75
2022/07/04 10:08:44;;;;;;;;;;;;;;;;;;5037460;28;19925;-75
2022/07/04 10:11:10;;;;;;;;;;;;;;;;;;5037640;28;20369;-74
2022/07/04 10:13:36;;;;;;;;;;;;;;;;;;5037167;28;20020;-75
2022/07/04 10:16:03;;;;;;;;;;;;;;;;;;5036693;28;19928;-75
2022/07/04 10:18:29;;;;;;;;;;;;;;;;;;5034762;28;19928;-75
2022/07/04 10:20:55;;;;;;;;;;;;;;;;;;5035996;28;19924;-74
2022/07/04 10:23:21;;;;;;;;;;;;;;;;;;5035536;28;19921;-75
2022/07/04 10:25:47;;;;;;;;;;;;;;;;;;5037897;28;19921;-75
2022/07/04 10:28:14;;;;;;;;;;;;;;;;;;5036630;28;19925;-75
2022/07/04 10:30:40;;;;;;;;;;;;;;;;;;5035503;28;19936;-75
2022/07/04 10:33:07;;;;;;;;;;;;;;;;;;5034617;28;19928;-75
2022/07/04 10:35:33;;;;;;;;;;;;;;;;;;5038569;28;19974;-75
2022/07/04 10:37:59;;;;;;;;;;;;;;;;;;5036058;28;19925;-75
2022/07/04 10:40:25;;;;;;;;;;;;;;;;;;5036757;28;19921;-75
2022/07/04 10:42:51;;;;;;;;;;;;;;;;;;5037777;28;19928;-75
2022/07/04 10:45:22;;;;;;;;;;;;;;;;;;5036921;28;20292;-75
2022/07/04 10:47:48;;;;;;;;;;;;;;;;;;5036649;28;19929;-75
2022/07/04 10:50:15;;;;;;;;;;;;;;;;;;5037547;28;19924;-75
2022/07/04 10:52:41;;;;;;;;;;;;;;;;;;5034344;28;20909;-75
2022/07/04 10:55:07;;;;;;;;;;;;;;;;;;5037520;28;19921;-74
2022/07/04 10:57:33;;;;;;;;;;;;;;;;;;5037063;28;19925;-75
2022/07/04 11:00:01;;;;;;;;;;;;;;;;;;5037836;28;19932;-75
2022/07/04 11:02:27;;;;;;;;;;;;;;;;;;5034430;28;19971;-75
2022/07/04 11:04:53;;;;;;;;;;;;;;;;;;5036854;28;19921;-75
2022/07/04 11:07:19;;;;;;;;;;;;;;;;;;5036560;28;19921;-75
2022/07/04 11:09:47;;;;;;;;;;;;;;;;;;5036709;28;19936;-75
2022/07/04 11:12:14;;;;;;;;;;;;;;;;;;5031956;28;19935;-75
2022/07/04 11:14:40;;;;;;;;;;;;;;;;;;5035860;28;20015;-75
2022/07/04 11:17:06;;;;;;;;;;;;;;;;;;5036801;28;19925;-75
2022/07/04 11:19:32;;;;;;;;;;;;;;;;;;5039528;28;19943;-75
2022/07/04 11:21:58;;;;;;;;;;;;;;;;;;5039364;28;19921;-75
2022/07/04 11:24:24;;;;;;;;;;;;;;;;;;5034507;28;20021;-75
2022/07/04 11:26:51;;;;;;;;;;;;;;;;;;5036349;28;19929;-75
2022/07/04 11:29:17;;;;;;;;;;;;;;;;;;5040878;28;19931;-75
2022/07/04 11:31:43;;;;;;;;;;;;;;;;;;5040558;28;20393;-75
2022/07/04 11:34:09;;;;;;;;;;;;;;;;;;5038298;28;19974;-75
2022/07/04 11:36:35;;;;;;;;;;;;;;;;;;5038784;28;20403;-76
2022/07/04 11:39:01;;;;;;;;;;;;;;;;;;5037207;28;19935;-75
2022/07/04 11:46:55;;;;;;;;;;;;;;;;;;5040214;28;20677;-75
2022/07/04 11:49:21;;;;;;;;;;;;;;;;;;5038333;28;19932;-75
2022/07/04 11:51:48;;;;;;;;;;;;;;;;;;5039246;28;19921;-75
2022/07/04 11:54:14;;;;;;;;;;;;;;;;;;5039983;28;19987;-74
2022/07/04 11:56:40;;;;;;;;;;;;;;;;;;5037557;28;19927;-75
2022/07/04 11:59:06;;;;;;;;;;;;;;;;;;5039133;28;19920;-75
2022/07/04 12:01:32;;;;;;;;;;;;;;;;;;5039580;28;19925;-75
2022/07/04 12:03:58;;;;;;;;;;;;;;;;;;5037278;28;20392;-75
2022/07/04 12:06:24;;;;;;;;;;;;;;;;;;5041107;28;20278;-75
2022/07/04 12:08:51;;;;;;;;;;;;;;;;;;5040710;28;19929;-75
2022/07/04 12:11:17;;;;;;;;;;;;;;;;;;5039365;28;19928;-74
2022/07/04 12:13:43;;;;;;;;;;;;;;;;;;5040560;28;19928;-75
2022/07/04 12:16:09;;;;;;;;;;;;;;;;;;5039770;28;19925;-75
2022/07/04 12:18:35;;;;;;;;;;;;;;;;;;5031913;28;19921;-75
2022/07/04 12:21:02;;;;;;;;;;;;;;;;;;5039324;28;20003;-75
2022/07/04 12:23:28;;;;;;;;;;;;;;;;;;5039263;28;19925;-75
2022/07/04 12:25:55;;;;;;;;;;;;;;;;;;5038394;28;20439;-75
2022/07/04 12:28:24;;;;;;;;;;;;;;;;;;5036713;28;19972;-74
2022/07/04 12:30:50;;;;;;;;;;;;;;;;;;5036657;28;20412;-75
2022/07/04 12:33:17;;;;;;;;;;;;;;;;;;5038691;28;19943;-74
2022/07/04 12:35:43;;;;;;;;;;;;;;;;;;5036570;28;19924;-74
2022/07/04 12:38:09;;;;;;;;;;;;;;;;;;5038147;28;19928;-75
2022/07/04 12:40:35;;;;;;;;;;;;;;;;;;5040520;28;19920;-75
2022/07/04 12:43:01;;;;;;;;;;;;;;;;;;5039762;28;19932;-75
2022/07/04 12:45:27;;;;;;;;;;;;;;;;;;5039962;28;20020;-74
2022/07/04 12:47:54;;;;;;;;;;;;;;;;;;5038257;28;19920;-74
2022/07/04 12:50:20;;;;;;;;;;;;;;;;;;5038515;28;19920;-74
2022/07/04 12:52:46;;;;;;;;;;;;;;;;;;5038821;28;19925;-74
2022/07/04 12:55:13;;;;;;;;;;;;;;;;;;5038154;28;20564;-74
2022/07/04 12:57:39;;;;;;;;;;;;;;;;;;5037658;28;19928;-74
2022/07/04 13:00:05;;;;;;;;;;;;;;;;;;5038625;28;19925;-74
2022/07/04 13:02:31;;;;;;;;;;;;;;;;;;5038695;28;19922;-75
2022/07/04 13:04:58;;;;;;;;;;;;;;;;;;5039778;28;19924;-74
2022/07/04 13:07:24;;;;;;;;;;;;;;;;;;5038624;28;20601;-74
2022/07/04 13:09:50;;;;;;;;;;;;;;;;;;5038793;28;20407;-74
2022/07/04 13:12:24;;;;;;;;;;;;;;;;;;5037300;28;20013;-74
2022/07/04 13:14:51;;;;;;;;;;;;;;;;;;5039744;28;20292;-75
2022/07/04 13:17:17;;;;;;;;;;;;;;;;;;5036204;28;19951;-74
2022/07/04 13:19:43;;;;;;;;;;;;;;;;;;5039156;28;19921;-74
2022/07/04 13:22:09;;;;;;;;;;;;;;;;;;5038530;28;19932;-74
2022/07/04 13:24:35;;;;;;;;;;;;;;;;;;5035693;28;19921;-75
2022/07/04 13:27:02;;;;;;;;;;;;;;;;;;5037577;28;19921;-74
2022/07/04 13:29:28;;;;;;;;;;;;;;;;;;5039464;28;20012;-74
2022/07/04 13:31:54;;;;;;;;;;;;;;;;;;5035638;28;19921;-74
2022/07/04 13:34:20;;;;;;;;;;;;;;;;;;5038172;28;19928;-75
2022/07/04 13:36:46;;;;;;;;;;;;;;;;;;5038790;28;20280;-74
2022/07/04 13:39:12;;;;;;;;;;;;;;;;;;5035138;28;19934;-74
2022/07/04 13:41:38;;;;;;;;;;;;;;;;;;5038187;28;19921;-75
2022/07/04 13:44:05;;;;;;;;;;;;;;;;;;5038692;28;19928;-74
2022/07/04 13:46:34;;;;;;;;;;;;;;;;;;5036733;28;20406;-75
2022/07/04 13:49:01;;;;;;;;;;;;;;;;;;5037847;28;19920;-75
2022/07/04 13:51:27;;;;;;;;;;;;;;;;;;5037751;28;19920;-74
2022/07/04 13:53:53;;;;;;;;;;;;;;;;;;5038090;28;19929;-74
2022/07/04 13:56:20;;;;;;;;;;;;;;;;;;5036052;28;20522;-74
2022/07/04 13:58:46;;;;;;;;;;;;;;;;;;5038775;28;19925;-74
2022/07/04 14:01:13;;;;;;;;;;;;;;;;;;5036481;28;19932;-74
2022/07/04 14:03:39;;;;;;;;;;;;;;;;;;5037349;28;19924;-74
2022/07/04 14:06:05;;;;;;;;;;;;;;;;;;5036832;28;19928;-75
2022/07/04 14:08:32;;;;;;;;;;;;;;;;;;5036588;28;19932;-74
2022/07/04 14:10:58;;;;;;;;;;;;;;;;;;5036731;28;19928;-74
2022/07/04 14:13:24;;;;;;;;;;;;;;;;;;5038992;28;19924;-74
2022/07/04 14:15:50;;;;;;;;;;;;;;;;;;5038978;28;20377;-74
2022/07/04 14:18:16;;;;;;;;;;;;;;;;;;5036031;28;19928;-74
2022/07/04 14:20:43;;;;;;;;;;;;;;;;;;5037358;28;20296;-74
2022/07/04 14:23:09;;;;;;;;;;;;;;;;;;5038148;28;20312;-74
2022/07/04 14:25:35;;;;;;;;;;;;;;;;;;5031823;28;19921;-74
2022/07/04 14:28:01;;;;;;;;;;;;;;;;;;5036857;28;19928;-75
2022/07/04 14:30:27;;;;;;;;;;;;;;;;;;5038063;28;19935;-75
2022/07/04 14:32:53;;;;;;;;;;;;;;;;;;5035339;28;19924;-75
2022/07/04 14:35:20;;;;;;;;;;;;;;;;;;5036734;28;19921;-75
2022/07/04 14:37:46;;;;;;;;;;;;;;;;;;5037813;28;19951;-74
2022/07/04 14:40:13;;;;;;;;;;;;;;;;;;5035880;28;19945;-74
2022/07/04 14:42:39;;;;;;;;;;;;;;;;;;5033465;28;19928;-75
2022/07/04 14:45:05;;;;;;;;;;;;;;;;;;5037902;28;19931;-75
2022/07/04 14:47:34;;;;;;;;;;;;;;;;;;5035497;28;19925;-75
2022/07/04 14:50:00;;;;;;;;;;;;;;;;;;5035576;28;19946;-75
2022/07/04 14:52:27;;;;;;;;;;;;;;;;;;5039018;28;19921;-75
2022/07/04 14:54:53;;;;;;;;;;;;;;;;;;5041544;28;19921;-75
2022/07/04 14:57:19;;;;;;;;;;;;;;;;;;5038259;28;19932;-75
2022/07/04 14:59:45;;;;;;;;;;;;;;;;;;5039859;28;19924;-75
2022/07/04 15:02:11;;;;;;;;;;;;;;;;;;5037147;28;19925;-75
2022/07/04 15:04:37;;;;;;;;;;;;;;;;;;5042149;28;19925;-75
2022/07/04 15:07:03;;;;;;;;;;;;;;;;;;5039328;28;19935;-75
2022/07/04 15:09:30;;;;;;;;;;;;;;;;;;5040944;28;19928;-74
2022/07/04 15:11:56;;;;;;;;;;;;;;;;;;5039634;28;20372;-75
2022/07/04 15:14:23;;;;;;;;;;;;;;;;;;5041889;28;20294;-73
2022/07/04 15:16:49;;;;;;;;;;;;;;;;;;5037630;28;20568;-73
2022/07/04 15:19:18;;;;;;;;;;;;;;;;;;5039237;28;19928;-73
2022/07/04 15:24:28;;;;;;;;;;;;;;;;;;5034706;28;19916;-75
2022/07/04 15:26:54;;;;;;;;;;;;;;;;;;5040958;28;19921;-75
2022/07/04 15:29:20;;;;;;;;;;;;;;;;;;5040775;28;19947;-75
2022/07/04 15:31:46;;;;;;;;;;;;;;;;;;5034731;28;19928;-75
2022/07/04 15:34:13;;;;;;;;;;;;;;;;;;5033192;28;19920;-75
2022/07/04 15:36:39;;;;;;;;;;;;;;;;;;5033801;28;19929;-75
2022/07/04 15:39:05;;;;;;;;;;;;;;;;;;5039264;28;19921;-75
2022/07/04 15:41:31;;;;;;;;;;;;;;;;;;5039277;28;19920;-75
2022/07/04 15:43:57;;;;;;;;;;;;;;;;;;5031128;28;19932;-75
2022/07/04 15:46:23;;;;;;;;;;;;;;;;;;5033751;28;20503;-75
2022/07/04 15:48:49;;;;;;;;;;;;;;;;;;5032554;28;20313;-75
2022/07/04 15:51:16;;;;;;;;;;;;;;;;;;5037118;28;19925;-75
2022/07/04 15:53:42;;;;;;;;;;;;;;;;;;5038690;28;19932;-75
2022/07/04 15:56:08;;;;;;;;;;;;;;;;;;5037129;28;20326;-75
2022/07/04 15:58:35;;;;;;;;;;;;;;;;;;5035883;28;19932;-75
2022/07/04 16:01:01;;;;;;;;;;;;;;;;;;5036248;28;19925;-75
2022/07/04 16:03:27;;;;;;;;;;;;;;;;;;5037036;28;19921;-75
2022/07/04 16:05:53;;;;;;;;;;;;;;;;;;5037786;28;19928;-75
2022/07/04 16:08:19;;;;;;;;;;;;;;;;;;5037864;28;19925;-75
2022/07/04 16:10:45;;;;;;;;;;;;;;;;;;5037760;28;19925;-75
2022/07/04 16:13:11;;;;;;;;;;;;;;;;;;5037132;28;19921;-75
2022/07/04 16:15:38;;;;;;;;;;;;;;;;;;5038974;28;19929;-75
2022/07/04 16:18:04;;;;;;;;;;;;;;;;;;5036268;28;19929;-75
2022/07/04 16:20:30;;;;;;;;;;;;;;;;;;5029079;28;19929;-75
2022/07/04 16:22:56;;;;;;;;;;;;;;;;;;5032843;28;19932;-75
2022/07/04 16:25:22;;;;;;;;;;;;;;;;;;5030407;28;19921;-75
2022/07/04 16:27:48;;;;;;;;;;;;;;;;;;5029900;28;20266;-75
2022/07/04 16:30:14;;;;;;;;;;;;;;;;;;5035453;28;19921;-75
2022/07/04 16:32:41;;;;;;;;;;;;;;;;;;5036709;28;19932;-75
2022/07/04 16:35:07;;;;;;;;;;;;;;;;;;5036048;28;19921;-75
2022/07/04 16:37:33;;;;;;;;;;;;;;;;;;5030192;28;21004;-75
2022/07/04 16:39:59;;;;;;;;;;;;;;;;;;5037305;28;19952;-75
2022/07/04 16:42:25;;;;;;;;;;;;;;;;;;5036632;28;19925;-75
2022/07/04 16:44:52;;;;;;;;;;;;;;;;;;5039884;28;19921;-76
2022/07/04 16:48:04;;;;;;;1.88;1.50;;;;;;;;;;5043224;28;20387;-76
2022/07/04 16:50:30;;;;;;;3.70;1.50;;;;;;;;;;5032317;28;20439;-76
2022/07/04 16:52:56;;;;;;;3.42;1.60;;;;;;;;;;5042945;28;20414;-75
2022/07/04 16:55:23;;;;;;;2.85;1.50;;;;;;;;;;5033172;28;20434;-76
2022/07/04 16:57:49;;;;;;;2.08;1.40;;;;;;;;;;5035116;28;20503;-75